• Join FlightAware (Why Join?)
  • Login
  • US Flag 
04:44PM EDT


 

Airport Tracker/Info


-or-


 

Live Flight TrackerFlight Track Log ✈ TAM3541 ✈ 15-May-2013 ✈ SBEG / MAO - SBBR / BSB

Flight Track Log - Related Links

Times and Time Zones

All times are in EDT time to prevent confusion due to time zone crossing. See the TAM3541 flight status page for this flight to view local times or setup timezone preferences in your user account.

Time Position Orientation Groundspeed Altitude Reporting Facility
EDT Latitude Longitude Course Direction KTS MPH feet Rate Location/Type
04:39PM -3.0380 -60.0180 90° East 153 176 1,700  Level FlightAware
04:39PM -3.0390 -60.0060 95° East 155 178 2,000 1,380 Climbing FlightAware
04:40PM -3.0400 -59.9960 96° East 153 176 2,400 1,200 Climbing FlightAware
04:40PM -3.0470 -59.9870 128° Southeast 169 194 2,600 600 Climbing FlightAware
04:40PM -3.0570 -59.9790 141° Southeast 186 214 2,700 600 Climbing FlightAware
04:40PM -3.0750 -59.9660 144° Southeast 212 244 3,000 720 Climbing FlightAware
04:41PM -3.0870 -59.9560 140° Southeast 234 269 3,200 1,320 Climbing FlightAware
04:41PM -3.1150 -59.9330 141° Southeast 260 299 4,000 1,860 Climbing FlightAware
04:41PM -3.1300 -59.9220 144° Southeast 263 303 4,600 2,400 Climbing FlightAware
04:42PM -3.1530 -59.9030 140° Southeast 266 306 5,600 2,520 Climbing FlightAware
04:42PM -3.1690 -59.8900 141° Southeast 267 307 6,300 2,400 Climbing FlightAware
04:43PM -3.1920 -59.8720 142° Southeast 272 313 7,200 2,100 Climbing FlightAware
04:43PM -3.2090 -59.8590 143° Southeast 276 318 7,700 1,920 Climbing FlightAware
04:43PM -3.2330 -59.8400 142° Southeast 281 323 8,500 1,920 Climbing FlightAware
04:44PM -3.2640 -59.8150 141° Southeast 288 331 9,500 1,740 Climbing FlightAware
04:44PM -3.3120 -59.7770 142° Southeast 308 354 10,700 1,260 Climbing FlightAware
04:45PM -3.3610 -59.7380 142° Southeast 342 394 11,300 1,200 Climbing FlightAware
04:46PM -3.4170 -59.6930 141° Southeast 358 412 12,400 1,140 Climbing FlightAware
04:47PM -3.4910 -59.6340 141° Southeast 389 448 13,200 720 Climbing FlightAware
04:47PM -3.5460 -59.5900 141° Southeast 394 453 13,600 300 Climbing FlightAware
04:48PM -3.5940 -59.5510 141° Southeast 394 453 13,600  Level FlightAware
04:49PM -3.6420 -59.5110 140° Southeast 394 453 13,600 180 Level FlightAware
04:51PM -3.7900 -59.3763 138° Southeast  Level Estimated
04:52PM -3.8770 -59.2970 138° Southeast  Level Estimated
04:53PM -3.9641 -59.2178 138° Southeast  Level Estimated
04:54PM -4.0499 -59.1395 138° Southeast  Level Estimated
04:55PM -4.1358 -59.0612 138° Southeast  Level Estimated
04:56PM -4.2216 -58.9830 138° Southeast  Level Estimated
04:57PM -4.3075 -58.9047 138° Southeast  Level Estimated
04:58PM -4.3933 -58.8264 138° Southeast  Level Estimated
04:59PM -4.4792 -58.7480 138° Southeast  Level Estimated
05:00PM -4.5650 -58.6697 138° Southeast  Level Estimated
05:01PM -4.6508 -58.5913 138° Southeast  Level Estimated
05:02PM -4.7366 -58.5129 138° Southeast  Level Estimated
05:03PM -4.8224 -58.4345 138° Southeast  Level Estimated
05:04PM -4.9082 -58.3561 138° Southeast  Level Estimated
05:05PM -4.9940 -58.2776 138° Southeast  Level Estimated
05:06PM -5.0797 -58.1992 138° Southeast  Level Estimated
05:07PM -5.1655 -58.1207 138° Southeast  Level Estimated
05:08PM -5.2512 -58.0421 138° Southeast  Level Estimated
05:09PM -5.3370 -57.9636 138° Southeast  Level Estimated
05:10PM -5.4227 -57.8851 138° Southeast  Level Estimated
05:11PM -5.5084 -57.8065 138° Southeast  Level Estimated
05:12PM -5.5942 -57.7279 138° Southeast  Level Estimated
05:13PM -5.6799 -57.6493 138° Southeast  Level Estimated
05:14PM -5.7655 -57.5706 138° Southeast  Level Estimated
05:15PM -5.8512 -57.4920 138° Southeast  Level Estimated
05:16PM -5.9369 -57.4133 138° Southeast  Level Estimated
05:17PM -6.0226 -57.3345 138° Southeast  Level Estimated
05:18PM -6.1082 -57.2558 138° Southeast  Level Estimated
05:19PM -6.1938 -57.1770 138° Southeast  Level Estimated
05:20PM -6.2794 -57.0982 138° Southeast  Level Estimated
05:21PM -6.3650 -57.0194 138° Southeast  Level Estimated
05:22PM -6.4507 -56.9406 138° Southeast  Level Estimated
05:23PM -6.5362 -56.8617 138° Southeast  Level Estimated
05:24PM -6.6218 -56.7828 138° Southeast  Level Estimated
05:25PM -6.7074 -56.7039 138° Southeast  Level Estimated
05:26PM -6.7929 -56.6249 137° Southeast  Level Estimated
05:27PM -6.8785 -56.5459 137° Southeast  Level Estimated
05:28PM -6.9640 -56.4669 137° Southeast  Level Estimated
05:29PM -7.0495 -56.3879 137° Southeast  Level Estimated
05:30PM -7.1350 -56.3088 137° Southeast  Level Estimated
05:31PM -7.2205 -56.2297 137° Southeast  Level Estimated
05:32PM -7.3059 -56.1506 137° Southeast  Level Estimated
05:33PM -7.3914 -56.0714 137° Southeast  Level Estimated
05:34PM -7.4768 -55.9922 137° Southeast  Level Estimated
05:35PM -7.5623 -55.9130 137° Southeast  Level Estimated
05:36PM -7.6477 -55.8338 137° Southeast  Level Estimated
05:37PM -7.7331 -55.7545 137° Southeast  Level Estimated
05:38PM -7.8185 -55.6752 137° Southeast  Level Estimated
05:39PM -7.9038 -55.5958 137° Southeast  Level Estimated
05:40PM -7.9892 -55.5164 137° Southeast  Level Estimated
05:41PM -8.0745 -55.4370 137° Southeast  Level Estimated
05:42PM -8.1598 -55.3576 137° Southeast  Level Estimated
05:43PM -8.2451 -55.2781 137° Southeast  Level Estimated
05:44PM -8.3304 -55.1986 137° Southeast  Level Estimated
05:45PM -8.4157 -55.1190 137° Southeast  Level Estimated
05:46PM -8.5010 -55.0394 137° Southeast  Level Estimated
05:47PM -8.5862 -54.9598 137° Southeast  Level Estimated
05:48PM -8.6714 -54.8802 137° Southeast  Level Estimated
05:49PM -8.7567 -54.8005 137° Southeast  Level Estimated
05:50PM -8.8419 -54.7207 137° Southeast  Level Estimated
05:51PM -8.9270 -54.6410 137° Southeast  Level Estimated
05:52PM -9.0122 -54.5612 137° Southeast  Level Estimated
05:53PM -9.0973 -54.4813 137° Southeast  Level Estimated
05:54PM -9.1825 -54.4015 137° Southeast  Level Estimated
05:55PM -9.2676 -54.3215 137° Southeast  Level Estimated
05:56PM -9.3527 -54.2416 137° Southeast  Level Estimated
05:57PM -9.4377 -54.1616 137° Southeast  Level Estimated
05:58PM -9.5228 -54.0815 137° Southeast  Level Estimated
05:59PM -9.6078 -54.0014 137° Southeast  Level Estimated
06:00PM -9.6929 -53.9213 137° Southeast  Level Estimated
06:01PM -9.7779 -53.8412 137° Southeast  Level Estimated
06:02PM -9.8628 -53.7610 137° Southeast  Level Estimated
06:03PM -9.9478 -53.6807 137° Southeast  Level Estimated
06:04PM -10.0327 -53.6004 137° Southeast  Level Estimated
06:05PM -10.1177 -53.5201 137° Southeast  Level Estimated
06:06PM -10.2026 -53.4398 137° Southeast  Level Estimated
06:07PM -10.2874 -53.3594 137° Southeast  Level Estimated
06:08PM -10.3723 -53.2789 137° Southeast  Level Estimated
06:09PM -10.4572 -53.1984 137° Southeast  Level Estimated
06:10PM -10.5420 -53.1179 137° Southeast  Level Estimated
06:11PM -10.6268 -53.0373 137° Southeast  Level Estimated
06:12PM -10.7116 -52.9567 137° Southeast  Level Estimated
06:13PM -10.7963 -52.8760 137° Southeast  Level Estimated
06:14PM -10.8811 -52.7953 137° Southeast  Level Estimated
06:15PM -10.9658 -52.7145 137° Southeast  Level Estimated
06:16PM -11.0505 -52.6337 137° Southeast  Level Estimated
06:17PM -11.1352 -52.5528 137° Southeast  Level Estimated
06:18PM -11.2198 -52.4720 137° Southeast  Level Estimated
06:19PM -11.3045 -52.3910 137° Southeast  Level Estimated
06:20PM -11.3891 -52.3100 137° Southeast  Level Estimated
06:21PM -11.4737 -52.2290 137° Southeast  Level Estimated
06:22PM -11.5582 -52.1479 137° Southeast  Level Estimated
06:23PM -11.6428 -52.0667 137° Southeast  Level Estimated
06:24PM -11.7273 -51.9855 137° Southeast  Level Estimated
06:25PM -11.8118 -51.9043 137° Southeast  Level Estimated
06:26PM -11.8963 -51.8230 137° Southeast  Level Estimated
06:27PM -11.9807 -51.7416 137° Southeast  Level Estimated
06:28PM -12.0652 -51.6602 137° Southeast  Level Estimated
06:29PM -12.1496 -51.5788 137° Southeast  Level Estimated
06:29PM -13.1630 -50.7030 137° Southeast 475 547 37,000  Level FlightAware
06:30PM -12.2340 -51.4973 137° Southeast  Level Estimated
06:30PM -13.2250 -50.6410 136° Southeast 473 544 37,000  Level FlightAware
06:30PM -13.2790 -50.5880 136° Southeast 473 544 37,000  Level FlightAware
06:31PM -13.3320 -50.5350 136° Southeast 473 544 37,000  Level FlightAware
06:32PM -13.3860 -50.4820 136° Southeast 473 544 37,000  Level FlightAware
06:32PM -13.4390 -50.4280 135° Southeast 473 544 37,000  Level FlightAware
06:33PM -13.5060 -50.3620 136° Southeast 473 544 37,000  Level FlightAware
06:34PM -13.5600 -50.3090 136° Southeast 473 544 37,000  Level FlightAware
06:34PM -13.6130 -50.2560 136° Southeast 473 544 37,000  Level FlightAware
06:35PM -13.6530 -50.2160 136° Southeast 473 544 37,000  Level FlightAware
06:36PM -13.7070 -50.1630 136° Southeast 473 544 37,000  Level FlightAware
06:36PM -13.7600 -50.1090 135° Southeast 473 544 37,000  Level FlightAware
06:37PM -13.8270 -50.0430 136° Southeast 473 544 37,000  Level FlightAware
06:38PM -13.8810 -49.9900 136° Southeast 473 544 37,000  Level FlightAware
06:38PM -13.9340 -49.9360 135° Southeast 473 544 37,000 -1,620 Level FlightAware
06:41PM -14.1004 -49.7635 135° Southeast  Level Estimated
06:42PM -14.1822 -49.6786 135° Southeast  Level Estimated
06:43PM -14.2639 -49.5937 135° Southeast  Level Estimated
06:44PM -14.3456 -49.5087 135° Southeast  Level Estimated
06:45PM -14.4273 -49.4236 135° Southeast  Level Estimated
06:46PM -14.5090 -49.3384 135° Southeast  Level Estimated
06:47PM -14.5906 -49.2532 135° Southeast  Level Estimated
06:48PM -14.6722 -49.1679 135° Southeast  Level Estimated
06:49PM -14.7538 -49.0826 135° Southeast  Level Estimated
06:49PM -15.0260 -49.0440 135° Southeast 375 432 19,700  Level FlightAware
06:49PM -15.0880 -49.0110 153° Southeast 349 402 19,100 -1,500 Descending FlightAware
06:50PM -15.1560 -48.9750 153° Southeast 347 399 17,600 -1,800 Descending FlightAware
06:51PM -15.2120 -48.9450 153° Southeast 343 395 16,600 -1,440 Descending FlightAware
06:51PM -15.2250 -48.9310 134° Southeast 343 395 16,300 -1,440 Descending FlightAware
06:52PM -15.2640 -48.8750 126° Southeast 332 382 15,300 -1,440 Descending FlightAware
06:52PM -15.3050 -48.8170 126° Southeast 322 371 14,300 -1,380 Descending FlightAware
06:53PM -15.3390 -48.7690 126° Southeast 312 359 13,400 -1,620 Descending FlightAware
06:54PM -15.3730 -48.7210 126° Southeast 317 365 12,200 -1,560 Descending FlightAware
06:54PM -15.4120 -48.6670 127° Southeast 306 352 11,200 -1,320 Descending FlightAware
06:55PM -15.4440 -48.6210 126° Southeast 293 337 10,400 -900 Descending FlightAware
06:56PM -15.4800 -48.5710 127° Southeast 269 310 10,000 -480 Descending FlightAware
06:56PM -15.4960 -48.5480 126° Southeast 257 296 9,900 -780 Descending FlightAware
06:57PM -15.5170 -48.5180 126° Southeast 247 284 9,300 -1,200 Descending FlightAware
06:57PM -15.5350 -48.4920 126° Southeast 243 280 8,800 -1,200 Descending FlightAware
06:58PM -15.5550 -48.4640 127° Southeast 241 277 8,200 -1,080 Descending FlightAware
06:58PM -15.5650 -48.4500 127° Southeast 245 282 8,000 -300 Descending FlightAware
06:58PM -15.5820 -48.4260 126° Southeast 251 289 8,000  Level FlightAware
06:59PM -15.6030 -48.3970 127° Southeast 249 287 8,000  Level FlightAware
06:59PM -15.6160 -48.3780 125° Southeast 246 283 8,000  Level FlightAware
07:00PM -15.6390 -48.3450 126° Southeast 249 287 8,000  Level FlightAware
07:00PM -15.6600 -48.3150 126° Southeast 250 288 8,000 -360 Level FlightAware
07:01PM -15.6760 -48.2930 127° Southeast 249 287 7,700 -1,020 Descending FlightAware
07:01PM -15.6980 -48.2630 127° Southeast 243 280 7,100 -600 Descending FlightAware
07:02PM -15.7150 -48.2370 124° Southeast 242 278 7,100 -480 Level FlightAware
07:02PM -15.7310 -48.2160 128° Southeast 239 275 6,700 -780 Descending FlightAware
07:02PM -15.7420 -48.2000 126° Southeast 238 274 6,600 -540 Descending FlightAware
07:03PM -15.7590 -48.1750 125° Southeast 238 274 6,300 -600 Descending FlightAware
07:03PM -15.7790 -48.1470 127° Southeast 225 259 6,100 -420 Descending FlightAware
07:03PM -15.7890 -48.1390 142° Southeast 222 255 6,000 -300 Descending FlightAware
07:04PM -15.8150 -48.1290 160° South 218 251 5,900 -660 Descending FlightAware
07:05PM -15.8490 -48.1170 161° South 204 235 5,300 -780 Descending FlightAware
07:05PM -15.8670 -48.1080 154° Southeast 186 214 5,100 -300 Descending FlightAware
07:05PM -15.8730 -48.0940 114° Southeast 153 176 5,100  Level FlightAware
07:06PM -15.8730 -48.0670 90° East 154 177 5,100  Level FlightAware
07:06PM -15.8710 -48.0430 85° East 154 177 5,100  Level FlightAware
07:07PM -15.8700 -48.0250 87° East 154 177 5,100  Level FlightAware
07:10PM -15.8626 -47.9127 86° East  Level Estimated
07:15PM -15.8626 -47.9127 73° East  Level Estimated
07:16PM -15.8626 -47.9127 128° Southeast  Level Estimated
07:18PM -15.8626 -47.9127 58° Northeast  Level Estimated
07:19PM -15.8626 -47.9127 128° Southeast  Level Estimated
07:20PM -15.8626 -47.9127 128° Southeast  Level Estimated
07:21PM -15.8626 -47.9127 128° Southeast  Level Estimated
07:22PM -15.8626 -47.9127 128° Southeast  Level Estimated
07:23PM -15.8626 -47.9127 128° Southeast  Level Estimated
07:24PM -15.8626 -47.9127 128° Southeast  Level Estimated
07:25PM -15.8626 -47.9127 128° Southeast  Level Estimated